sensor_id;sensor_type;location;lat;lon;timestamp;temperature;humidity
20777;DHT22;10548;47.504;8.248;2022-10-14T00:00:19;13.50;99.90
20777;DHT22;10548;47.504;8.248;2022-10-14T00:02:46;13.50;99.90
20777;DHT22;10548;47.504;8.248;2022-10-14T00:05:13;13.50;99.90
20777;DHT22;10548;47.504;8.248;2022-10-14T00:07:41;13.50;99.90
20777;DHT22;10548;47.504;8.248;2022-10-14T00:10:08;13.50;99.90
20777;DHT22;10548;47.504;8.248;2022-10-14T00:12:35;13.50;99.90
20777;DHT22;10548;47.504;8.248;2022-10-14T00:15:02;13.40;99.90
20777;DHT22;10548;47.504;8.248;2022-10-14T00:17:29;13.50;99.90
20777;DHT22;10548;47.504;8.248;2022-10-14T00:19:56;13.40;99.90
20777;DHT22;10548;47.504;8.248;2022-10-14T00:22:24;13.40;99.90
20777;DHT22;10548;47.504;8.248;2022-10-14T00:24:51;13.40;99.90
20777;DHT22;10548;47.504;8.248;2022-10-14T00:27:18;13.40;99.90
20777;DHT22;10548;47.504;8.248;2022-10-14T00:29:46;13.40;99.90
20777;DHT22;10548;47.504;8.248;2022-10-14T00:32:13;13.40;99.90
20777;DHT22;10548;47.504;8.248;2022-10-14T00:34:40;13.30;99.90
20777;DHT22;10548;47.504;8.248;2022-10-14T00:37:07;13.40;99.90
20777;DHT22;10548;47.504;8.248;2022-10-14T00:39:35;13.40;99.90
20777;DHT22;10548;47.504;8.248;2022-10-14T00:42:02;13.40;99.90
20777;DHT22;10548;47.504;8.248;2022-10-14T00:47:25;13.50;99.90
20777;DHT22;10548;47.504;8.248;2022-10-14T00:49:53;13.40;99.90
20777;DHT22;10548;47.504;8.248;2022-10-14T00:52:21;13.50;99.90
20777;DHT22;10548;47.504;8.248;2022-10-14T00:55:04;13.50;99.90
20777;DHT22;10548;47.504;8.248;2022-10-14T00:57:32;13.50;99.90
20777;DHT22;10548;47.504;8.248;2022-10-14T01:00:08;13.50;99.90
20777;DHT22;10548;47.504;8.248;2022-10-14T01:02:36;13.60;99.90
20777;DHT22;10548;47.504;8.248;2022-10-14T01:05:05;13.60;99.90
20777;DHT22;10548;47.504;8.248;2022-10-14T01:07:51;13.60;99.90
20777;DHT22;10548;47.504;8.248;2022-10-14T01:10:53;13.60;99.90
20777;DHT22;10548;47.504;8.248;2022-10-14T01:13:31;13.60;99.90
20777;DHT22;10548;47.504;8.248;2022-10-14T01:16:50;13.60;99.90
20777;DHT22;10548;47.504;8.248;2022-10-14T01:22:30;13.50;99.90
20777;DHT22;10548;47.504;8.248;2022-10-14T01:25:23;13.40;99.90
20777;DHT22;10548;47.504;8.248;2022-10-14T01:31:00;13.30;99.90
20777;DHT22;10548;47.504;8.248;2022-10-14T01:33:35;13.30;99.90
20777;DHT22;10548;47.504;8.248;2022-10-14T01:36:14;13.20;99.90
20777;DHT22;10548;47.504;8.248;2022-10-14T01:39:25;13.20;99.90
20777;DHT22;10548;47.504;8.248;2022-10-14T01:42:01;13.20;99.90
20777;DHT22;10548;47.504;8.248;2022-10-14T01:44:30;13.20;99.90
20777;DHT22;10548;47.504;8.248;2022-10-14T01:46:59;13.20;99.90
20777;DHT22;10548;47.504;8.248;2022-10-14T01:49:34;13.20;99.90
20777;DHT22;10548;47.504;8.248;2022-10-14T01:52:10;13.30;99.90
20777;DHT22;10548;47.504;8.248;2022-10-14T01:54:40;13.30;99.90
20777;DHT22;10548;47.504;8.248;2022-10-14T01:57:12;13.20;99.90
20777;DHT22;10548;47.504;8.248;2022-10-14T01:59:43;13.30;99.90
20777;DHT22;10548;47.504;8.248;2022-10-14T02:02:12;13.30;99.90
20777;DHT22;10548;47.504;8.248;2022-10-14T02:04:40;13.30;99.90
20777;DHT22;10548;47.504;8.248;2022-10-14T02:07:31;13.30;99.90
20777;DHT22;10548;47.504;8.248;2022-10-14T02:10:32;13.30;99.90
20777;DHT22;10548;47.504;8.248;2022-10-14T02:16:47;13.30;99.90
20777;DHT22;10548;47.504;8.248;2022-10-14T02:22:33;13.40;99.90
20777;DHT22;10548;47.504;8.248;2022-10-14T02:25:14;13.40;99.90
20777;DHT22;10548;47.504;8.248;2022-10-14T02:27:44;13.30;99.90
20777;DHT22;10548;47.504;8.248;2022-10-14T02:30:12;13.30;99.90
20777;DHT22;10548;47.504;8.248;2022-10-14T02:32:40;13.40;99.90
20777;DHT22;10548;47.504;8.248;2022-10-14T02:35:15;13.50;99.90
20777;DHT22;10548;47.504;8.248;2022-10-14T02:37:46;13.40;99.90
20777;DHT22;10548;47.504;8.248;2022-10-14T02:40:50;13.40;99.90
20777;DHT22;10548;47.504;8.248;2022-10-14T02:43:34;13.40;99.90
20777;DHT22;10548;47.504;8.248;2022-10-14T02:46:05;13.40;99.90
20777;DHT22;10548;47.504;8.248;2022-10-14T02:48:48;13.50;99.90
20777;DHT22;10548;47.504;8.248;2022-10-14T02:51:15;13.40;99.90
20777;DHT22;10548;47.504;8.248;2022-10-14T02:53:43;13.40;99.90
20777;DHT22;10548;47.504;8.248;2022-10-14T02:56:12;13.50;99.90
20777;DHT22;10548;47.504;8.248;2022-10-14T02:58:39;13.50;99.90
20777;DHT22;10548;47.504;8.248;2022-10-14T03:01:07;13.50;99.90
20777;DHT22;10548;47.504;8.248;2022-10-14T03:03:35;13.50;99.90
20777;DHT22;10548;47.504;8.248;2022-10-14T03:06:02;13.50;99.90
20777;DHT22;10548;47.504;8.248;2022-10-14T03:08:31;13.50;99.90
20777;DHT22;10548;47.504;8.248;2022-10-14T03:11:00;13.50;99.90
20777;DHT22;10548;47.504;8.248;2022-10-14T03:13:28;13.50;99.90
20777;DHT22;10548;47.504;8.248;2022-10-14T03:15:55;13.40;99.90
20777;DHT22;10548;47.504;8.248;2022-10-14T03:18:24;13.50;99.90
20777;DHT22;10548;47.504;8.248;2022-10-14T03:20:57;13.40;99.90
20777;DHT22;10548;47.504;8.248;2022-10-14T03:23:31;13.40;99.90
20777;DHT22;10548;47.504;8.248;2022-10-14T03:25:58;13.40;99.90
20777;DHT22;10548;47.504;8.248;2022-10-14T03:28:32;13.40;99.90
20777;DHT22;10548;47.504;8.248;2022-10-14T03:31:11;13.40;99.90
20777;DHT22;10548;47.504;8.248;2022-10-14T03:33:56;13.30;99.90
20777;DHT22;10548;47.504;8.248;2022-10-14T03:36:25;13.30;99.90
20777;DHT22;10548;47.504;8.248;2022-10-14T03:38:55;13.30;99.90
20777;DHT22;10548;47.504;8.248;2022-10-14T03:41:36;13.30;99.90
20777;DHT22;10548;47.504;8.248;2022-10-14T03:44:05;13.20;99.90
20777;DHT22;10548;47.504;8.248;2022-10-14T03:46:34;13.20;99.90
20777;DHT22;10548;47.504;8.248;2022-10-14T03:49:02;13.20;99.90
20777;DHT22;10548;47.504;8.248;2022-10-14T03:51:29;13.10;99.90
20777;DHT22;10548;47.504;8.248;2022-10-14T03:54:06;13.10;99.90
20777;DHT22;10548;47.504;8.248;2022-10-14T03:56:34;13.10;99.90
20777;DHT22;10548;47.504;8.248;2022-10-14T03:59:02;13.10;99.90
20777;DHT22;10548;47.504;8.248;2022-10-14T04:01:30;13.10;99.90
20777;DHT22;10548;47.504;8.248;2022-10-14T04:04:19;13.20;99.90
20777;DHT22;10548;47.504;8.248;2022-10-14T04:06:46;13.10;99.90
20777;DHT22;10548;47.504;8.248;2022-10-14T04:09:16;13.10;99.90
20777;DHT22;10548;47.504;8.248;2022-10-14T04:11:43;13.10;99.90
20777;DHT22;10548;47.504;8.248;2022-10-14T04:14:26;13.10;99.90
20777;DHT22;10548;47.504;8.248;2022-10-14T04:16:55;13.10;99.90
20777;DHT22;10548;47.504;8.248;2022-10-14T04:19:22;13.10;99.90
20777;DHT22;10548;47.504;8.248;2022-10-14T04:21:49;13.10;99.90
20777;DHT22;10548;47.504;8.248;2022-10-14T04:24:20;13.10;99.90
20777;DHT22;10548;47.504;8.248;2022-10-14T04:26:54;13.10;99.90
20777;DHT22;10548;47.504;8.248;2022-10-14T04:29:31;13.10;99.90
20777;DHT22;10548;47.504;8.248;2022-10-14T04:32:08;13.00;99.90
20777;DHT22;10548;47.504;8.248;2022-10-14T04:34:36;13.00;99.90
20777;DHT22;10548;47.504;8.248;2022-10-14T04:37:05;13.00;99.90
20777;DHT22;10548;47.504;8.248;2022-10-14T04:40:01;12.90;99.90
20777;DHT22;10548;47.504;8.248;2022-10-14T04:42:30;12.80;99.90
20777;DHT22;10548;47.504;8.248;2022-10-14T04:45:01;12.90;99.90
20777;DHT22;10548;47.504;8.248;2022-10-14T04:47:41;12.80;99.90
20777;DHT22;10548;47.504;8.248;2022-10-14T04:50:16;12.80;99.90
20777;DHT22;10548;47.504;8.248;2022-10-14T04:53:03;12.80;99.90
20777;DHT22;10548;47.504;8.248;2022-10-14T04:55:30;12.80;99.90
20777;DHT22;10548;47.504;8.248;2022-10-14T04:57:58;12.70;99.90
20777;DHT22;10548;47.504;8.248;2022-10-14T05:00:30;12.80;99.90
20777;DHT22;10548;47.504;8.248;2022-10-14T05:03:03;12.80;99.90
20777;DHT22;10548;47.504;8.248;2022-10-14T05:05:33;12.80;99.90
20777;DHT22;10548;47.504;8.248;2022-10-14T05:08:03;12.70;99.90
20777;DHT22;10548;47.504;8.248;2022-10-14T05:10:36;12.80;99.90
20777;DHT22;10548;47.504;8.248;2022-10-14T05:13:07;12.70;99.90
20777;DHT22;10548;47.504;8.248;2022-10-14T05:15:43;12.70;99.90
20777;DHT22;10548;47.504;8.248;2022-10-14T05:18:11;12.70;99.90
20777;DHT22;10548;47.504;8.248;2022-10-14T05:20:58;12.70;99.90
20777;DHT22;10548;47.504;8.248;2022-10-14T05:23:37;12.70;99.90
20777;DHT22;10548;47.504;8.248;2022-10-14T05:26:06;12.70;99.90
20777;DHT22;10548;47.504;8.248;2022-10-14T05:28:38;12.80;99.90
20777;DHT22;10548;47.504;8.248;2022-10-14T05:31:06;12.70;99.90
20777;DHT22;10548;47.504;8.248;2022-10-14T05:33:41;12.70;99.90
20777;DHT22;10548;47.504;8.248;2022-10-14T05:36:09;12.70;99.90
20777;DHT22;10548;47.504;8.248;2022-10-14T05:38:36;12.70;99.90
20777;DHT22;10548;47.504;8.248;2022-10-14T05:41:03;12.80;99.90
20777;DHT22;10548;47.504;8.248;2022-10-14T05:43:31;12.80;99.90
20777;DHT22;10548;47.504;8.248;2022-10-14T05:46:03;12.80;99.90
20777;DHT22;10548;47.504;8.248;2022-10-14T05:48:35;12.80;99.90
20777;DHT22;10548;47.504;8.248;2022-10-14T05:51:03;12.90;99.90
20777;DHT22;10548;47.504;8.248;2022-10-14T05:53:33;12.90;99.90
20777;DHT22;10548;47.504;8.248;2022-10-14T05:56:06;12.90;99.90
20777;DHT22;10548;47.504;8.248;2022-10-14T05:58:36;12.80;99.90
20777;DHT22;10548;47.504;8.248;2022-10-14T06:01:06;12.90;99.90
20777;DHT22;10548;47.504;8.248;2022-10-14T06:03:37;12.90;99.90
20777;DHT22;10548;47.504;8.248;2022-10-14T06:06:06;13.00;99.90
20777;DHT22;10548;47.504;8.248;2022-10-14T06:08:33;13.00;99.90
20777;DHT22;10548;47.504;8.248;2022-10-14T06:11:02;13.00;99.90
20777;DHT22;10548;47.504;8.248;2022-10-14T06:13:31;13.00;99.90
20777;DHT22;10548;47.504;8.248;2022-10-14T06:16:07;13.10;99.90
20777;DHT22;10548;47.504;8.248;2022-10-14T06:18:35;13.10;99.90
20777;DHT22;10548;47.504;8.248;2022-10-14T06:21:04;13.10;99.90
20777;DHT22;10548;47.504;8.248;2022-10-14T06:23:32;13.10;99.90
20777;DHT22;10548;47.504;8.248;2022-10-14T06:26:03;13.20;99.90
20777;DHT22;10548;47.504;8.248;2022-10-14T06:28:30;13.10;99.90
20777;DHT22;10548;47.504;8.248;2022-10-14T06:30:58;13.10;99.90
20777;DHT22;10548;47.504;8.248;2022-10-14T06:33:27;13.10;99.90
20777;DHT22;10548;47.504;8.248;2022-10-14T06:35:55;13.20;99.90
20777;DHT22;10548;47.504;8.248;2022-10-14T06:38:23;13.30;99.90
20777;DHT22;10548;47.504;8.248;2022-10-14T06:40:51;13.20;99.90
20777;DHT22;10548;47.504;8.248;2022-10-14T06:43:20;13.20;99.90
20777;DHT22;10548;47.504;8.248;2022-10-14T06:45:48;13.30;99.90
20777;DHT22;10548;47.504;8.248;2022-10-14T06:48:15;13.30;99.90
20777;DHT22;10548;47.504;8.248;2022-10-14T06:50:42;13.30;99.90
20777;DHT22;10548;47.504;8.248;2022-10-14T06:53:09;13.30;99.90
20777;DHT22;10548;47.504;8.248;2022-10-14T06:55:37;13.40;99.90
20777;DHT22;10548;47.504;8.248;2022-10-14T06:58:04;13.50;99.90
20777;DHT22;10548;47.504;8.248;2022-10-14T07:00:31;13.50;99.90
20777;DHT22;10548;47.504;8.248;2022-10-14T07:02:58;13.60;99.90
20777;DHT22;10548;47.504;8.248;2022-10-14T07:05:26;13.60;99.90
20777;DHT22;10548;47.504;8.248;2022-10-14T07:07:53;13.60;99.90
20777;DHT22;10548;47.504;8.248;2022-10-14T07:10:20;13.60;99.90
20777;DHT22;10548;47.504;8.248;2022-10-14T07:12:47;13.60;99.90
20777;DHT22;10548;47.504;8.248;2022-10-14T07:15:15;13.60;99.90
20777;DHT22;10548;47.504;8.248;2022-10-14T07:17:42;13.50;99.90
20777;DHT22;10548;47.504;8.248;2022-10-14T07:20:10;13.50;99.90
20777;DHT22;10548;47.504;8.248;2022-10-14T07:22:38;13.50;99.90
20777;DHT22;10548;47.504;8.248;2022-10-14T07:25:06;13.40;99.90
20777;DHT22;10548;47.504;8.248;2022-10-14T07:27:34;13.30;99.90
20777;DHT22;10548;47.504;8.248;2022-10-14T07:30:02;13.30;99.90
20777;DHT22;10548;47.504;8.248;2022-10-14T07:32:30;13.20;99.90
20777;DHT22;10548;47.504;8.248;2022-10-14T07:34:57;13.30;99.90
20777;DHT22;10548;47.504;8.248;2022-10-14T07:37:25;13.30;99.90
20777;DHT22;10548;47.504;8.248;2022-10-14T07:39:52;13.40;99.90
20777;DHT22;10548;47.504;8.248;2022-10-14T07:42:19;13.40;99.90
20777;DHT22;10548;47.504;8.248;2022-10-14T07:44:51;13.50;99.90
20777;DHT22;10548;47.504;8.248;2022-10-14T07:47:20;13.40;99.90
20777;DHT22;10548;47.504;8.248;2022-10-14T07:49:48;13.50;99.90
20777;DHT22;10548;47.504;8.248;2022-10-14T07:52:15;13.50;99.90
20777;DHT22;10548;47.504;8.248;2022-10-14T07:54:45;13.60;99.90
20777;DHT22;10548;47.504;8.248;2022-10-14T07:57:12;13.60;99.90
20777;DHT22;10548;47.504;8.248;2022-10-14T07:59:39;13.70;99.90
20777;DHT22;10548;47.504;8.248;2022-10-14T08:02:09;13.70;99.90
20777;DHT22;10548;47.504;8.248;2022-10-14T08:04:36;13.60;99.90
20777;DHT22;10548;47.504;8.248;2022-10-14T08:07:04;13.70;99.90
20777;DHT22;10548;47.504;8.248;2022-10-14T08:09:33;13.70;99.90
20777;DHT22;10548;47.504;8.248;2022-10-14T08:12:01;13.60;99.90
20777;DHT22;10548;47.504;8.248;2022-10-14T08:14:28;13.80;99.90
20777;DHT22;10548;47.504;8.248;2022-10-14T08:16:55;13.90;99.90
20777;DHT22;10548;47.504;8.248;2022-10-14T08:19:23;13.90;99.90
20777;DHT22;10548;47.504;8.248;2022-10-14T08:21:50;13.90;99.90
20777;DHT22;10548;47.504;8.248;2022-10-14T08:24:19;13.90;99.90
20777;DHT22;10548;47.504;8.248;2022-10-14T08:26:54;13.80;99.90
20777;DHT22;10548;47.504;8.248;2022-10-14T08:29:23;13.60;99.90
20777;DHT22;10548;47.504;8.248;2022-10-14T08:31:50;13.80;99.90
20777;DHT22;10548;47.504;8.248;2022-10-14T08:34:18;13.80;99.90
20777;DHT22;10548;47.504;8.248;2022-10-14T08:36:47;14.00;99.90
20777;DHT22;10548;47.504;8.248;2022-10-14T08:39:18;14.10;99.90
20777;DHT22;10548;47.504;8.248;2022-10-14T08:42:17;14.00;99.90
20777;DHT22;10548;47.504;8.248;2022-10-14T08:45:12;13.90;99.90
20777;DHT22;10548;47.504;8.248;2022-10-14T08:47:44;14.10;99.90
20777;DHT22;10548;47.504;8.248;2022-10-14T08:53:34;14.50;99.90
20777;DHT22;10548;47.504;8.248;2022-10-14T08:56:02;14.50;99.90
20777;DHT22;10548;47.504;8.248;2022-10-14T08:58:48;14.60;99.90
20777;DHT22;10548;47.504;8.248;2022-10-14T09:01:39;14.80;99.90
20777;DHT22;10548;47.504;8.248;2022-10-14T09:04:12;14.90;99.90
20777;DHT22;10548;47.504;8.248;2022-10-14T09:06:44;14.90;99.90
20777;DHT22;10548;47.504;8.248;2022-10-14T09:09:40;14.90;99.90
20777;DHT22;10548;47.504;8.248;2022-10-14T09:12:12;15.10;99.90
20777;DHT22;10548;47.504;8.248;2022-10-14T09:15:07;15.20;99.90
20777;DHT22;10548;47.504;8.248;2022-10-14T09:20:27;15.50;99.90
20777;DHT22;10548;47.504;8.248;2022-10-14T09:23:15;15.70;99.90
20777;DHT22;10548;47.504;8.248;2022-10-14T09:25:53;15.80;99.90
20777;DHT22;10548;47.504;8.248;2022-10-14T09:28:28;15.50;99.90
20777;DHT22;10548;47.504;8.248;2022-10-14T09:30:57;15.50;99.90
20777;DHT22;10548;47.504;8.248;2022-10-14T09:33:26;15.40;99.90
20777;DHT22;10548;47.504;8.248;2022-10-14T09:35:54;15.30;99.90
20777;DHT22;10548;47.504;8.248;2022-10-14T09:38:21;15.40;99.90
20777;DHT22;10548;47.504;8.248;2022-10-14T09:40:55;15.50;99.90
20777;DHT22;10548;47.504;8.248;2022-10-14T09:43:23;15.60;99.90
20777;DHT22;10548;47.504;8.248;2022-10-14T09:46:03;15.50;99.90
20777;DHT22;10548;47.504;8.248;2022-10-14T09:48:43;15.40;99.90
20777;DHT22;10548;47.504;8.248;2022-10-14T09:51:23;15.50;99.90
20777;DHT22;10548;47.504;8.248;2022-10-14T09:53:56;15.40;99.90
20777;DHT22;10548;47.504;8.248;2022-10-14T09:56:32;15.50;99.90
20777;DHT22;10548;47.504;8.248;2022-10-14T09:59:18;15.80;99.90
20777;DHT22;10548;47.504;8.248;2022-10-14T10:01:54;15.70;99.90
20777;DHT22;10548;47.504;8.248;2022-10-14T10:04:32;15.70;99.90
20777;DHT22;10548;47.504;8.248;2022-10-14T10:07:05;15.80;99.90
20777;DHT22;10548;47.504;8.248;2022-10-14T10:09:33;15.70;99.90
20777;DHT22;10548;47.504;8.248;2022-10-14T10:12:21;15.60;99.90
20777;DHT22;10548;47.504;8.248;2022-10-14T10:15:00;15.40;99.90
20777;DHT22;10548;47.504;8.248;2022-10-14T10:17:37;15.50;99.90
20777;DHT22;10548;47.504;8.248;2022-10-14T10:20:28;15.50;99.90
20777;DHT22;10548;47.504;8.248;2022-10-14T10:23:21;15.50;99.90
20777;DHT22;10548;47.504;8.248;2022-10-14T10:25:51;15.40;99.90
20777;DHT22;10548;47.504;8.248;2022-10-14T10:28:26;15.40;99.90
20777;DHT22;10548;47.504;8.248;2022-10-14T10:31:37;15.40;99.90
20777;DHT22;10548;47.504;8.248;2022-10-14T10:34:55;15.40;99.90
20777;DHT22;10548;47.504;8.248;2022-10-14T10:37:31;15.40;99.90
20777;DHT22;10548;47.504;8.248;2022-10-14T10:40:26;15.30;99.90
20777;DHT22;10548;47.504;8.248;2022-10-14T10:53:18;15.40;99.90
20777;DHT22;10548;47.504;8.248;2022-10-14T10:56:24;15.40;99.90
20777;DHT22;10548;47.504;8.248;2022-10-14T11:02:48;15.50;99.90
20777;DHT22;10548;47.504;8.248;2022-10-14T11:05:45;15.50;99.90
20777;DHT22;10548;47.504;8.248;2022-10-14T11:11:55;15.80;99.90
20777;DHT22;10548;47.504;8.248;2022-10-14T11:15:13;15.80;99.90
20777;DHT22;10548;47.504;8.248;2022-10-14T11:18:26;16.00;99.90
20777;DHT22;10548;47.504;8.248;2022-10-14T11:21:53;16.00;99.90
20777;DHT22;10548;47.504;8.248;2022-10-14T11:24:41;16.10;99.90
20777;DHT22;10548;47.504;8.248;2022-10-14T11:27:42;16.20;99.90
20777;DHT22;10548;47.504;8.248;2022-10-14T11:31:04;16.90;99.90
20777;DHT22;10548;47.504;8.248;2022-10-14T11:34:57;17.10;99.90
20777;DHT22;10548;47.504;8.248;2022-10-14T11:37:15;16.80;99.90
20777;DHT22;10548;47.504;8.248;2022-10-14T11:40:00;16.80;99.90
20777;DHT22;10548;47.504;8.248;2022-10-14T11:46:10;17.10;99.90
20777;DHT22;10548;47.504;8.248;2022-10-14T11:48:58;17.00;99.90
20777;DHT22;10548;47.504;8.248;2022-10-14T11:51:39;17.20;99.90
20777;DHT22;10548;47.504;8.248;2022-10-14T11:54:16;17.20;99.90
20777;DHT22;10548;47.504;8.248;2022-10-14T11:56:57;17.30;99.90
20777;DHT22;10548;47.504;8.248;2022-10-14T11:59:55;17.60;99.90
20777;DHT22;10548;47.504;8.248;2022-10-14T12:06:18;17.40;99.90
20777;DHT22;10548;47.504;8.248;2022-10-14T12:11:50;17.20;99.90
20777;DHT22;10548;47.504;8.248;2022-10-14T12:14:29;17.10;99.90
20777;DHT22;10548;47.504;8.248;2022-10-14T12:16:59;17.00;99.90
20777;DHT22;10548;47.504;8.248;2022-10-14T12:19:28;16.90;99.90
20777;DHT22;10548;47.504;8.248;2022-10-14T12:22:32;16.80;99.90
20777;DHT22;10548;47.504;8.248;2022-10-14T12:25:05;16.80;99.90
20777;DHT22;10548;47.504;8.248;2022-10-14T12:27:36;16.90;99.90
20777;DHT22;10548;47.504;8.248;2022-10-14T12:33:03;16.90;99.90
20777;DHT22;10548;47.504;8.248;2022-10-14T12:36:03;16.80;99.90
20777;DHT22;10548;47.504;8.248;2022-10-14T12:38:32;17.10;99.90
20777;DHT22;10548;47.504;8.248;2022-10-14T12:41:40;17.10;99.90
20777;DHT22;10548;47.504;8.248;2022-10-14T12:44:13;17.10;99.90
20777;DHT22;10548;47.504;8.248;2022-10-14T12:46:43;17.10;99.90
20777;DHT22;10548;47.504;8.248;2022-10-14T12:49:48;17.10;99.90
20777;DHT22;10548;47.504;8.248;2022-10-14T12:52:20;16.90;99.90
20777;DHT22;10548;47.504;8.248;2022-10-14T12:54:50;17.00;99.90
20777;DHT22;10548;47.504;8.248;2022-10-14T12:57:28;16.90;99.90
20777;DHT22;10548;47.504;8.248;2022-10-14T13:02:52;16.90;99.90
20777;DHT22;10548;47.504;8.248;2022-10-14T13:05:38;16.80;99.90
20777;DHT22;10548;47.504;8.248;2022-10-14T13:08:32;16.80;99.90
20777;DHT22;10548;47.504;8.248;2022-10-14T13:11:08;16.80;99.90
20777;DHT22;10548;47.504;8.248;2022-10-14T13:13:57;16.80;99.90
20777;DHT22;10548;47.504;8.248;2022-10-14T13:43:39;16.20;99.90
20777;DHT22;10548;47.504;8.248;2022-10-14T13:46:33;16.10;99.90
20777;DHT22;10548;47.504;8.248;2022-10-14T13:49:11;16.10;99.90
20777;DHT22;10548;47.504;8.248;2022-10-14T13:51:56;16.00;99.90
20777;DHT22;10548;47.504;8.248;2022-10-14T13:54:25;15.90;99.90
20777;DHT22;10548;47.504;8.248;2022-10-14T13:57:22;15.90;99.90
20777;DHT22;10548;47.504;8.248;2022-10-14T14:00:31;15.90;99.90
20777;DHT22;10548;47.504;8.248;2022-10-14T14:03:19;15.80;99.90
20777;DHT22;10548;47.504;8.248;2022-10-14T14:05:48;15.60;99.90
20777;DHT22;10548;47.504;8.248;2022-10-14T14:08:20;15.70;99.90
20777;DHT22;10548;47.504;8.248;2022-10-14T14:11:10;15.60;99.90
20777;DHT22;10548;47.504;8.248;2022-10-14T14:14:08;15.60;99.90
20777;DHT22;10548;47.504;8.248;2022-10-14T14:16:53;15.60;99.90
20777;DHT22;10548;47.504;8.248;2022-10-14T14:19:35;15.80;99.90
20777;DHT22;10548;47.504;8.248;2022-10-14T14:22:39;15.70;99.90
20777;DHT22;10548;47.504;8.248;2022-10-14T14:25:27;15.70;99.90
20777;DHT22;10548;47.504;8.248;2022-10-14T14:28:17;15.70;99.90
20777;DHT22;10548;47.504;8.248;2022-10-14T15:49:47;15.80;99.90
20777;DHT22;10548;47.504;8.248;2022-10-14T15:52:16;15.70;99.90
20777;DHT22;10548;47.504;8.248;2022-10-14T15:54:47;15.60;99.90
20777;DHT22;10548;47.504;8.248;2022-10-14T15:57:15;15.50;99.90
20777;DHT22;10548;47.504;8.248;2022-10-14T15:59:46;15.40;99.90
20777;DHT22;10548;47.504;8.248;2022-10-14T16:02:21;15.30;99.90
20777;DHT22;10548;47.504;8.248;2022-10-14T16:04:50;15.30;99.90
20777;DHT22;10548;47.504;8.248;2022-10-14T16:07:37;15.30;99.90
20777;DHT22;10548;47.504;8.248;2022-10-14T16:10:11;15.30;99.90
20777;DHT22;10548;47.504;8.248;2022-10-14T16:12:39;15.30;99.90
20777;DHT22;10548;47.504;8.248;2022-10-14T16:15:42;15.20;99.90
20777;DHT22;10548;47.504;8.248;2022-10-14T16:18:12;15.20;99.90
20777;DHT22;10548;47.504;8.248;2022-10-14T16:20:39;15.10;99.90
20777;DHT22;10548;47.504;8.248;2022-10-14T16:23:08;15.00;99.90
20777;DHT22;10548;47.504;8.248;2022-10-14T16:25:45;14.90;99.90
20777;DHT22;10548;47.504;8.248;2022-10-14T16:28:17;14.90;99.90
20777;DHT22;10548;47.504;8.248;2022-10-14T16:30:45;14.90;99.90
20777;DHT22;10548;47.504;8.248;2022-10-14T16:33:17;14.90;99.90
20777;DHT22;10548;47.504;8.248;2022-10-14T16:35:54;15.00;99.90
20777;DHT22;10548;47.504;8.248;2022-10-14T16:38:22;15.00;99.90
20777;DHT22;10548;47.504;8.248;2022-10-14T16:40:57;15.10;99.90
20777;DHT22;10548;47.504;8.248;2022-10-14T16:43:26;15.10;99.90
20777;DHT22;10548;47.504;8.248;2022-10-14T16:45:57;15.10;99.90
20777;DHT22;10548;47.504;8.248;2022-10-14T16:48:25;15.10;99.90
20777;DHT22;10548;47.504;8.248;2022-10-14T16:50:53;15.10;99.90
20777;DHT22;10548;47.504;8.248;2022-10-14T16:53:26;15.20;99.90
20777;DHT22;10548;47.504;8.248;2022-10-14T16:56:15;15.20;99.90
20777;DHT22;10548;47.504;8.248;2022-10-14T16:59:20;15.20;99.90
20777;DHT22;10548;47.504;8.248;2022-10-14T17:01:47;15.20;99.90
20777;DHT22;10548;47.504;8.248;2022-10-14T17:04:17;15.20;99.90
20777;DHT22;10548;47.504;8.248;2022-10-14T17:06:56;15.20;99.90
20777;DHT22;10548;47.504;8.248;2022-10-14T17:09:24;15.20;99.90
20777;DHT22;10548;47.504;8.248;2022-10-14T17:12:00;15.20;99.90
20777;DHT22;10548;47.504;8.248;2022-10-14T17:14:27;15.20;99.90
20777;DHT22;10548;47.504;8.248;2022-10-14T17:16:58;15.20;99.90
20777;DHT22;10548;47.504;8.248;2022-10-14T17:19:25;15.20;99.90
20777;DHT22;10548;47.504;8.248;2022-10-14T17:21:53;15.30;99.90
20777;DHT22;10548;47.504;8.248;2022-10-14T17:24:20;15.20;99.90
20777;DHT22;10548;47.504;8.248;2022-10-14T17:26:47;15.30;99.90
20777;DHT22;10548;47.504;8.248;2022-10-14T17:29:15;15.20;99.90
20777;DHT22;10548;47.504;8.248;2022-10-14T17:31:44;15.10;99.90
20777;DHT22;10548;47.504;8.248;2022-10-14T17:34:11;15.20;99.90
20777;DHT22;10548;47.504;8.248;2022-10-14T17:36:38;15.20;99.90
20777;DHT22;10548;47.504;8.248;2022-10-14T17:39:10;15.20;99.90
20777;DHT22;10548;47.504;8.248;2022-10-14T17:41:50;15.20;99.90
20777;DHT22;10548;47.504;8.248;2022-10-14T17:44:17;15.10;99.90
20777;DHT22;10548;47.504;8.248;2022-10-14T17:46:45;15.10;99.90
20777;DHT22;10548;47.504;8.248;2022-10-14T17:49:12;15.10;99.90
20777;DHT22;10548;47.504;8.248;2022-10-14T17:51:41;15.00;99.90
20777;DHT22;10548;47.504;8.248;2022-10-14T17:54:10;15.10;99.90
20777;DHT22;10548;47.504;8.248;2022-10-14T17:56:38;15.10;99.90
20777;DHT22;10548;47.504;8.248;2022-10-14T17:59:08;15.00;99.90
20777;DHT22;10548;47.504;8.248;2022-10-14T18:01:36;15.10;99.90
20777;DHT22;10548;47.504;8.248;2022-10-14T18:04:23;15.10;99.90
20777;DHT22;10548;47.504;8.248;2022-10-14T18:06:50;15.10;99.90
20777;DHT22;10548;47.504;8.248;2022-10-14T18:09:20;15.00;99.90
20777;DHT22;10548;47.504;8.248;2022-10-14T18:11:47;15.00;99.90
20777;DHT22;10548;47.504;8.248;2022-10-14T18:14:37;15.00;99.90
20777;DHT22;10548;47.504;8.248;2022-10-14T18:17:07;15.00;99.90
20777;DHT22;10548;47.504;8.248;2022-10-14T18:19:37;14.90;99.90
20777;DHT22;10548;47.504;8.248;2022-10-14T18:32:00;14.50;99.90
20777;DHT22;10548;47.504;8.248;2022-10-14T18:44:18;14.20;99.90
20777;DHT22;10548;47.504;8.248;2022-10-14T18:46:46;14.10;99.90
20777;DHT22;10548;47.504;8.248;2022-10-14T18:49:13;14.10;99.90
20777;DHT22;10548;47.504;8.248;2022-10-14T18:51:41;14.10;99.90
20777;DHT22;10548;47.504;8.248;2022-10-14T18:54:19;14.10;99.90
20777;DHT22;10548;47.504;8.248;2022-10-14T18:56:47;14.10;99.90
20777;DHT22;10548;47.504;8.248;2022-10-14T19:04:14;14.10;99.90
20777;DHT22;10548;47.504;8.248;2022-10-14T19:06:41;14.10;99.90
20777;DHT22;10548;47.504;8.248;2022-10-14T19:09:15;14.10;99.90
20777;DHT22;10548;47.504;8.248;2022-10-14T19:11:42;14.20;99.90
20777;DHT22;10548;47.504;8.248;2022-10-14T19:14:10;14.20;99.90
20777;DHT22;10548;47.504;8.248;2022-10-14T19:16:40;14.20;99.90
20777;DHT22;10548;47.504;8.248;2022-10-14T19:19:13;14.20;99.90
20777;DHT22;10548;47.504;8.248;2022-10-14T19:21:44;14.30;99.90
20777;DHT22;10548;47.504;8.248;2022-10-14T19:26:42;14.30;99.90